sensor_id;sensor_type;location;lat;lon;timestamp;P1;durP1;ratioP1;P2;durP2;ratioP2
2161;SDS011;1087;50.226;8.682;2023-02-03T00:01:40;3.47;;;3.17;;
2161;SDS011;1087;50.226;8.682;2023-02-03T00:04:06;7.87;;;3.30;;
2161;SDS011;1087;50.226;8.682;2023-02-03T00:06:31;5.60;;;3.57;;
2161;SDS011;1087;50.226;8.682;2023-02-03T00:08:57;6.50;;;3.13;;
2161;SDS011;1087;50.226;8.682;2023-02-03T00:11:24;4.60;;;3.50;;
2161;SDS011;1087;50.226;8.682;2023-02-03T00:13:51;4.43;;;2.90;;
2161;SDS011;1087;50.226;8.682;2023-02-03T00:16:16;5.17;;;3.27;;
2161;SDS011;1087;50.226;8.682;2023-02-03T00:18:42;5.97;;;3.33;;
2161;SDS011;1087;50.226;8.682;2023-02-03T00:21:07;6.10;;;3.63;;
2161;SDS011;1087;50.226;8.682;2023-02-03T00:23:33;7.93;;;3.63;;
2161;SDS011;1087;50.226;8.682;2023-02-03T00:26:05;8.40;;;3.03;;
2161;SDS011;1087;50.226;8.682;2023-02-03T00:28:35;3.97;;;2.93;;
2161;SDS011;1087;50.226;8.682;2023-02-03T00:31:01;6.17;;;3.37;;
2161;SDS011;1087;50.226;8.682;2023-02-03T00:33:27;4.03;;;2.97;;
2161;SDS011;1087;50.226;8.682;2023-02-03T00:35:52;7.13;;;3.30;;
2161;SDS011;1087;50.226;8.682;2023-02-03T00:38:18;4.03;;;3.03;;
2161;SDS011;1087;50.226;8.682;2023-02-03T00:40:50;4.80;;;3.80;;
2161;SDS011;1087;50.226;8.682;2023-02-03T00:43:17;8.23;;;3.67;;
2161;SDS011;1087;50.226;8.682;2023-02-03T00:45:43;4.30;;;2.93;;
2161;SDS011;1087;50.226;8.682;2023-02-03T00:48:08;3.40;;;2.90;;
2161;SDS011;1087;50.226;8.682;2023-02-03T00:50:34;7.10;;;3.07;;
2161;SDS011;1087;50.226;8.682;2023-02-03T00:52:59;6.63;;;3.93;;
2161;SDS011;1087;50.226;8.682;2023-02-03T00:55:25;5.23;;;3.57;;
2161;SDS011;1087;50.226;8.682;2023-02-03T00:57:50;5.20;;;3.57;;
2161;SDS011;1087;50.226;8.682;2023-02-03T01:00:16;3.80;;;3.10;;
2161;SDS011;1087;50.226;8.682;2023-02-03T01:02:43;3.33;;;2.70;;
2161;SDS011;1087;50.226;8.682;2023-02-03T01:05:09;6.33;;;3.17;;
2161;SDS011;1087;50.226;8.682;2023-02-03T01:07:35;4.13;;;3.70;;
2161;SDS011;1087;50.226;8.682;2023-02-03T01:10:01;5.80;;;2.97;;
2161;SDS011;1087;50.226;8.682;2023-02-03T01:12:28;4.17;;;3.27;;
2161;SDS011;1087;50.226;8.682;2023-02-03T01:14:54;3.20;;;2.93;;
2161;SDS011;1087;50.226;8.682;2023-02-03T01:17:20;5.50;;;2.60;;
2161;SDS011;1087;50.226;8.682;2023-02-03T01:19:45;5.43;;;3.13;;
2161;SDS011;1087;50.226;8.682;2023-02-03T01:22:11;4.70;;;3.10;;
2161;SDS011;1087;50.226;8.682;2023-02-03T01:24:36;4.43;;;2.87;;
2161;SDS011;1087;50.226;8.682;2023-02-03T01:27:02;4.40;;;3.27;;
2161;SDS011;1087;50.226;8.682;2023-02-03T01:29:27;4.37;;;3.37;;
2161;SDS011;1087;50.226;8.682;2023-02-03T01:31:53;4.70;;;3.40;;
2161;SDS011;1087;50.226;8.682;2023-02-03T01:34:19;6.60;;;4.00;;
2161;SDS011;1087;50.226;8.682;2023-02-03T01:36:44;4.20;;;2.50;;
2161;SDS011;1087;50.226;8.682;2023-02-03T01:39:10;6.53;;;3.70;;
2161;SDS011;1087;50.226;8.682;2023-02-03T01:41:37;4.40;;;2.63;;
2161;SDS011;1087;50.226;8.682;2023-02-03T01:47:09;3.40;;;3.10;;
2161;SDS011;1087;50.226;8.682;2023-02-03T01:49:35;3.03;;;2.73;;
2161;SDS011;1087;50.226;8.682;2023-02-03T01:52:03;4.50;;;2.80;;
2161;SDS011;1087;50.226;8.682;2023-02-03T01:54:34;5.33;;;2.60;;
2161;SDS011;1087;50.226;8.682;2023-02-03T01:57:05;7.93;;;3.33;;
2161;SDS011;1087;50.226;8.682;2023-02-03T01:59:39;7.77;;;2.80;;
2161;SDS011;1087;50.226;8.682;2023-02-03T02:02:06;3.40;;;2.70;;
2161;SDS011;1087;50.226;8.682;2023-02-03T02:04:37;4.90;;;3.00;;
2161;SDS011;1087;50.226;8.682;2023-02-03T02:07:10;4.10;;;2.77;;
2161;SDS011;1087;50.226;8.682;2023-02-03T02:09:35;4.00;;;2.73;;
2161;SDS011;1087;50.226;8.682;2023-02-03T02:12:01;3.40;;;2.70;;
2161;SDS011;1087;50.226;8.682;2023-02-03T02:14:27;4.90;;;3.00;;
2161;SDS011;1087;50.226;8.682;2023-02-03T02:17:09;4.23;;;2.47;;
2161;SDS011;1087;50.226;8.682;2023-02-03T02:19:58;5.80;;;2.50;;
2161;SDS011;1087;50.226;8.682;2023-02-03T02:23:07;3.00;;;2.60;;
2161;SDS011;1087;50.226;8.682;2023-02-03T02:28:46;3.93;;;2.70;;
2161;SDS011;1087;50.226;8.682;2023-02-03T02:34:07;2.70;;;2.43;;
2161;SDS011;1087;50.226;8.682;2023-02-03T02:37:06;2.43;;;2.20;;
2161;SDS011;1087;50.226;8.682;2023-02-03T02:39:52;6.00;;;3.13;;
2161;SDS011;1087;50.226;8.682;2023-02-03T02:42:49;4.03;;;2.10;;
2161;SDS011;1087;50.226;8.682;2023-02-03T02:45:29;3.30;;;2.70;;
2161;SDS011;1087;50.226;8.682;2023-02-03T02:48:04;5.27;;;2.47;;
2161;SDS011;1087;50.226;8.682;2023-02-03T02:50:36;3.23;;;2.57;;
2161;SDS011;1087;50.226;8.682;2023-02-03T02:53:05;4.90;;;2.60;;
2161;SDS011;1087;50.226;8.682;2023-02-03T02:55:32;2.63;;;2.43;;
2161;SDS011;1087;50.226;8.682;2023-02-03T02:58:03;5.63;;;3.00;;
2161;SDS011;1087;50.226;8.682;2023-02-03T03:00:32;3.60;;;3.10;;
2161;SDS011;1087;50.226;8.682;2023-02-03T03:03:12;5.30;;;3.10;;
2161;SDS011;1087;50.226;8.682;2023-02-03T03:05:38;5.90;;;3.20;;
2161;SDS011;1087;50.226;8.682;2023-02-03T03:08:07;3.57;;;2.47;;
2161;SDS011;1087;50.226;8.682;2023-02-03T03:10:36;3.00;;;2.67;;
2161;SDS011;1087;50.226;8.682;2023-02-03T03:13:06;3.10;;;2.70;;
2161;SDS011;1087;50.226;8.682;2023-02-03T03:15:35;2.77;;;2.57;;
2161;SDS011;1087;50.226;8.682;2023-02-03T03:18:12;3.60;;;2.57;;
2161;SDS011;1087;50.226;8.682;2023-02-03T03:20:45;2.37;;;2.17;;
2161;SDS011;1087;50.226;8.682;2023-02-03T03:23:15;4.57;;;3.20;;
2161;SDS011;1087;50.226;8.682;2023-02-03T03:25:48;4.47;;;2.50;;
2161;SDS011;1087;50.226;8.682;2023-02-03T03:28:24;3.27;;;2.70;;
2161;SDS011;1087;50.226;8.682;2023-02-03T03:30:59;5.63;;;2.73;;
2161;SDS011;1087;50.226;8.682;2023-02-03T03:33:24;4.13;;;3.73;;
2161;SDS011;1087;50.226;8.682;2023-02-03T03:36:11;2.30;;;2.10;;
2161;SDS011;1087;50.226;8.682;2023-02-03T03:38:55;3.83;;;2.40;;
2161;SDS011;1087;50.226;8.682;2023-02-03T03:41:28;3.70;;;2.63;;
2161;SDS011;1087;50.226;8.682;2023-02-03T03:43:55;3.10;;;2.53;;
2161;SDS011;1087;50.226;8.682;2023-02-03T03:46:26;6.63;;;2.70;;
2161;SDS011;1087;50.226;8.682;2023-02-03T03:48:57;2.37;;;2.17;;
2161;SDS011;1087;50.226;8.682;2023-02-03T03:54:14;2.57;;;2.03;;
2161;SDS011;1087;50.226;8.682;2023-02-03T03:56:47;2.50;;;1.90;;
2161;SDS011;1087;50.226;8.682;2023-02-03T03:59:15;2.53;;;2.10;;
2161;SDS011;1087;50.226;8.682;2023-02-03T04:01:42;2.40;;;1.90;;
2161;SDS011;1087;50.226;8.682;2023-02-03T04:04:09;3.03;;;2.03;;
2161;SDS011;1087;50.226;8.682;2023-02-03T04:06:36;3.93;;;2.23;;
2161;SDS011;1087;50.226;8.682;2023-02-03T04:09:03;2.47;;;1.73;;
2161;SDS011;1087;50.226;8.682;2023-02-03T04:11:29;2.20;;;2.00;;
2161;SDS011;1087;50.226;8.682;2023-02-03T04:14:13;2.20;;;2.10;;
2161;SDS011;1087;50.226;8.682;2023-02-03T04:16:39;1.97;;;1.77;;
2161;SDS011;1087;50.226;8.682;2023-02-03T04:19:04;2.00;;;1.90;;
2161;SDS011;1087;50.226;8.682;2023-02-03T04:21:30;2.10;;;1.80;;
2161;SDS011;1087;50.226;8.682;2023-02-03T04:23:55;2.00;;;1.73;;
2161;SDS011;1087;50.226;8.682;2023-02-03T04:26:21;2.70;;;2.10;;
2161;SDS011;1087;50.226;8.682;2023-02-03T04:28:47;5.10;;;1.90;;
2161;SDS011;1087;50.226;8.682;2023-02-03T04:31:12;2.00;;;1.90;;
2161;SDS011;1087;50.226;8.682;2023-02-03T04:33:38;2.37;;;2.00;;
2161;SDS011;1087;50.226;8.682;2023-02-03T04:36:03;2.60;;;2.40;;
2161;SDS011;1087;50.226;8.682;2023-02-03T04:38:29;2.53;;;2.33;;
2161;SDS011;1087;50.226;8.682;2023-02-03T04:40:55;2.73;;;2.10;;
2161;SDS011;1087;50.226;8.682;2023-02-03T04:43:20;2.80;;;2.47;;
2161;SDS011;1087;50.226;8.682;2023-02-03T04:45:46;2.97;;;2.67;;
2161;SDS011;1087;50.226;8.682;2023-02-03T04:48:11;2.50;;;2.30;;
2161;SDS011;1087;50.226;8.682;2023-02-03T04:50:37;2.40;;;1.97;;
2161;SDS011;1087;50.226;8.682;2023-02-03T04:53:02;2.70;;;2.50;;
2161;SDS011;1087;50.226;8.682;2023-02-03T04:55:28;2.30;;;2.10;;
2161;SDS011;1087;50.226;8.682;2023-02-03T04:57:54;2.77;;;2.53;;
2161;SDS011;1087;50.226;8.682;2023-02-03T05:00:23;2.67;;;2.47;;
2161;SDS011;1087;50.226;8.682;2023-02-03T05:02:50;3.37;;;2.13;;
2161;SDS011;1087;50.226;8.682;2023-02-03T05:05:15;2.63;;;2.23;;
2161;SDS011;1087;50.226;8.682;2023-02-03T05:07:41;2.87;;;2.47;;
2161;SDS011;1087;50.226;8.682;2023-02-03T05:10:06;3.00;;;2.70;;
2161;SDS011;1087;50.226;8.682;2023-02-03T05:12:32;6.80;;;2.20;;
2161;SDS011;1087;50.226;8.682;2023-02-03T05:14:58;2.63;;;2.43;;
2161;SDS011;1087;50.226;8.682;2023-02-03T05:17:23;2.67;;;2.43;;
2161;SDS011;1087;50.226;8.682;2023-02-03T05:19:49;2.73;;;2.43;;
2161;SDS011;1087;50.226;8.682;2023-02-03T05:22:14;3.23;;;2.50;;
2161;SDS011;1087;50.226;8.682;2023-02-03T05:24:40;4.27;;;2.30;;
2161;SDS011;1087;50.226;8.682;2023-02-03T05:27:05;2.60;;;2.10;;
2161;SDS011;1087;50.226;8.682;2023-02-03T05:29:31;3.13;;;2.50;;
2161;SDS011;1087;50.226;8.682;2023-02-03T05:31:56;2.23;;;2.03;;
2161;SDS011;1087;50.226;8.682;2023-02-03T05:34:22;3.30;;;2.00;;
2161;SDS011;1087;50.226;8.682;2023-02-03T05:36:47;3.10;;;2.17;;
2161;SDS011;1087;50.226;8.682;2023-02-03T05:39:13;3.40;;;3.10;;
2161;SDS011;1087;50.226;8.682;2023-02-03T05:41:38;2.63;;;2.43;;
2161;SDS011;1087;50.226;8.682;2023-02-03T05:44:20;3.13;;;2.77;;
2161;SDS011;1087;50.226;8.682;2023-02-03T05:46:51;3.77;;;2.73;;
2161;SDS011;1087;50.226;8.682;2023-02-03T05:49:17;2.40;;;2.20;;
2161;SDS011;1087;50.226;8.682;2023-02-03T05:51:47;3.10;;;2.80;;
2161;SDS011;1087;50.226;8.682;2023-02-03T05:54:13;3.80;;;2.90;;
2161;SDS011;1087;50.226;8.682;2023-02-03T05:56:39;2.27;;;2.17;;
2161;SDS011;1087;50.226;8.682;2023-02-03T05:59:05;2.07;;;1.87;;
2161;SDS011;1087;50.226;8.682;2023-02-03T06:01:31;4.40;;;2.77;;
2161;SDS011;1087;50.226;8.682;2023-02-03T06:03:57;2.90;;;2.53;;
2161;SDS011;1087;50.226;8.682;2023-02-03T06:06:23;2.57;;;2.37;;
2161;SDS011;1087;50.226;8.682;2023-02-03T06:08:49;2.33;;;2.13;;
2161;SDS011;1087;50.226;8.682;2023-02-03T06:11:21;2.47;;;2.27;;
2161;SDS011;1087;50.226;8.682;2023-02-03T06:13:48;2.40;;;1.90;;
2161;SDS011;1087;50.226;8.682;2023-02-03T06:16:14;3.10;;;1.97;;
2161;SDS011;1087;50.226;8.682;2023-02-03T06:18:39;2.50;;;2.30;;
2161;SDS011;1087;50.226;8.682;2023-02-03T06:21:05;3.50;;;2.50;;
2161;SDS011;1087;50.226;8.682;2023-02-03T06:23:30;4.10;;;2.77;;
2161;SDS011;1087;50.226;8.682;2023-02-03T06:25:56;2.83;;;2.40;;
2161;SDS011;1087;50.226;8.682;2023-02-03T06:28:24;2.27;;;2.07;;
2161;SDS011;1087;50.226;8.682;2023-02-03T06:30:50;2.90;;;2.20;;
2161;SDS011;1087;50.226;8.682;2023-02-03T06:33:16;2.43;;;2.20;;
2161;SDS011;1087;50.226;8.682;2023-02-03T06:35:43;2.33;;;2.13;;
2161;SDS011;1087;50.226;8.682;2023-02-03T06:38:08;2.83;;;2.20;;
2161;SDS011;1087;50.226;8.682;2023-02-03T06:40:34;2.10;;;2.00;;
2161;SDS011;1087;50.226;8.682;2023-02-03T06:42:59;2.60;;;2.40;;
2161;SDS011;1087;50.226;8.682;2023-02-03T06:45:25;3.17;;;2.10;;
2161;SDS011;1087;50.226;8.682;2023-02-03T06:47:50;2.77;;;2.50;;
2161;SDS011;1087;50.226;8.682;2023-02-03T06:50:16;3.27;;;2.40;;
2161;SDS011;1087;50.226;8.682;2023-02-03T06:52:42;2.43;;;2.23;;
2161;SDS011;1087;50.226;8.682;2023-02-03T06:55:07;2.87;;;2.47;;
2161;SDS011;1087;50.226;8.682;2023-02-03T06:57:33;3.50;;;2.37;;
2161;SDS011;1087;50.226;8.682;2023-02-03T06:59:59;2.63;;;2.07;;
2161;SDS011;1087;50.226;8.682;2023-02-03T07:02:24;2.63;;;2.27;;
2161;SDS011;1087;50.226;8.682;2023-02-03T07:04:50;4.23;;;2.10;;
2161;SDS011;1087;50.226;8.682;2023-02-03T07:07:16;2.50;;;2.30;;
2161;SDS011;1087;50.226;8.682;2023-02-03T07:09:41;3.83;;;2.30;;
2161;SDS011;1087;50.226;8.682;2023-02-03T07:12:07;3.07;;;2.07;;
2161;SDS011;1087;50.226;8.682;2023-02-03T07:14:33;2.30;;;2.07;;
2161;SDS011;1087;50.226;8.682;2023-02-03T07:17:00;3.43;;;2.23;;
2161;SDS011;1087;50.226;8.682;2023-02-03T07:19:26;3.83;;;2.03;;
2161;SDS011;1087;50.226;8.682;2023-02-03T07:21:52;2.40;;;2.20;;
2161;SDS011;1087;50.226;8.682;2023-02-03T07:24:18;2.53;;;2.33;;
2161;SDS011;1087;50.226;8.682;2023-02-03T07:26:43;3.37;;;2.57;;
2161;SDS011;1087;50.226;8.682;2023-02-03T07:29:09;2.97;;;2.20;;
2161;SDS011;1087;50.226;8.682;2023-02-03T07:31:34;3.13;;;2.60;;
2161;SDS011;1087;50.226;8.682;2023-02-03T07:34:00;3.57;;;2.30;;
2161;SDS011;1087;50.226;8.682;2023-02-03T07:36:26;3.10;;;2.77;;
2161;SDS011;1087;50.226;8.682;2023-02-03T07:38:52;3.10;;;2.53;;
2161;SDS011;1087;50.226;8.682;2023-02-03T07:41:18;3.83;;;2.50;;
2161;SDS011;1087;50.226;8.682;2023-02-03T07:43:44;3.10;;;2.07;;
2161;SDS011;1087;50.226;8.682;2023-02-03T07:46:10;3.27;;;1.97;;
2161;SDS011;1087;50.226;8.682;2023-02-03T07:48:35;2.83;;;2.53;;
2161;SDS011;1087;50.226;8.682;2023-02-03T07:51:01;5.00;;;3.03;;
2161;SDS011;1087;50.226;8.682;2023-02-03T07:53:27;2.90;;;2.50;;
2161;SDS011;1087;50.226;8.682;2023-02-03T07:55:52;2.83;;;2.63;;
2161;SDS011;1087;50.226;8.682;2023-02-03T07:58:18;4.10;;;2.37;;
2161;SDS011;1087;50.226;8.682;2023-02-03T08:00:43;3.23;;;2.13;;
2161;SDS011;1087;50.226;8.682;2023-02-03T08:03:09;2.80;;;2.20;;
2161;SDS011;1087;50.226;8.682;2023-02-03T08:05:35;3.60;;;2.50;;
2161;SDS011;1087;50.226;8.682;2023-02-03T08:08:00;2.60;;;2.40;;
2161;SDS011;1087;50.226;8.682;2023-02-03T08:10:26;10.63;;;2.50;;
2161;SDS011;1087;50.226;8.682;2023-02-03T08:12:52;2.83;;;2.30;;
2161;SDS011;1087;50.226;8.682;2023-02-03T08:15:18;5.47;;;2.47;;
2161;SDS011;1087;50.226;8.682;2023-02-03T08:17:44;2.27;;;2.07;;
2161;SDS011;1087;50.226;8.682;2023-02-03T08:20:10;3.07;;;2.47;;
2161;SDS011;1087;50.226;8.682;2023-02-03T08:22:36;3.23;;;2.07;;
2161;SDS011;1087;50.226;8.682;2023-02-03T08:25:02;3.70;;;2.67;;
2161;SDS011;1087;50.226;8.682;2023-02-03T08:27:28;3.30;;;2.30;;
2161;SDS011;1087;50.226;8.682;2023-02-03T08:29:55;3.80;;;2.20;;
2161;SDS011;1087;50.226;8.682;2023-02-03T08:32:21;2.33;;;2.17;;
2161;SDS011;1087;50.226;8.682;2023-02-03T08:34:47;3.00;;;2.23;;
2161;SDS011;1087;50.226;8.682;2023-02-03T08:37:14;4.10;;;2.37;;
2161;SDS011;1087;50.226;8.682;2023-02-03T08:39:40;2.00;;;1.70;;
2161;SDS011;1087;50.226;8.682;2023-02-03T08:42:06;3.03;;;1.97;;
2161;SDS011;1087;50.226;8.682;2023-02-03T08:44:32;2.40;;;1.90;;
2161;SDS011;1087;50.226;8.682;2023-02-03T08:46:58;4.47;;;2.20;;
2161;SDS011;1087;50.226;8.682;2023-02-03T08:49:25;3.67;;;2.00;;
2161;SDS011;1087;50.226;8.682;2023-02-03T08:51:52;3.23;;;1.87;;
2161;SDS011;1087;50.226;8.682;2023-02-03T08:54:17;3.50;;;1.97;;
2161;SDS011;1087;50.226;8.682;2023-02-03T08:56:43;3.50;;;1.83;;
2161;SDS011;1087;50.226;8.682;2023-02-03T08:59:09;2.50;;;1.90;;
2161;SDS011;1087;50.226;8.682;2023-02-03T09:01:35;2.63;;;1.93;;
2161;SDS011;1087;50.226;8.682;2023-02-03T09:04:01;2.50;;;2.00;;
2161;SDS011;1087;50.226;8.682;2023-02-03T09:06:27;1.80;;;1.70;;
2161;SDS011;1087;50.226;8.682;2023-02-03T09:08:55;1.87;;;1.60;;
2161;SDS011;1087;50.226;8.682;2023-02-03T09:11:21;2.47;;;1.53;;
2161;SDS011;1087;50.226;8.682;2023-02-03T09:13:47;4.20;;;3.53;;
2161;SDS011;1087;50.226;8.682;2023-02-03T09:16:13;2.17;;;1.60;;
2161;SDS011;1087;50.226;8.682;2023-02-03T09:18:44;4.27;;;1.93;;
2161;SDS011;1087;50.226;8.682;2023-02-03T09:21:10;2.17;;;1.97;;
2161;SDS011;1087;50.226;8.682;2023-02-03T09:23:37;3.00;;;1.87;;
2161;SDS011;1087;50.226;8.682;2023-02-03T09:26:04;2.70;;;2.10;;
2161;SDS011;1087;50.226;8.682;2023-02-03T09:28:31;6.23;;;2.20;;
2161;SDS011;1087;50.226;8.682;2023-02-03T09:31:04;3.03;;;1.70;;
2161;SDS011;1087;50.226;8.682;2023-02-03T09:33:32;2.10;;;1.90;;
2161;SDS011;1087;50.226;8.682;2023-02-03T09:35:58;2.10;;;1.47;;
2161;SDS011;1087;50.226;8.682;2023-02-03T09:38:24;2.60;;;1.53;;
2161;SDS011;1087;50.226;8.682;2023-02-03T09:40:51;2.20;;;1.90;;
2161;SDS011;1087;50.226;8.682;2023-02-03T09:45:48;2.43;;;1.70;;
2161;SDS011;1087;50.226;8.682;2023-02-03T09:48:15;2.53;;;1.83;;
2161;SDS011;1087;50.226;8.682;2023-02-03T09:50:45;4.80;;;1.97;;
2161;SDS011;1087;50.226;8.682;2023-02-03T09:53:24;2.53;;;1.77;;
2161;SDS011;1087;50.226;8.682;2023-02-03T09:55:54;3.50;;;2.07;;
2161;SDS011;1087;50.226;8.682;2023-02-03T09:58:21;2.30;;;1.60;;
2161;SDS011;1087;50.226;8.682;2023-02-03T10:00:53;1.90;;;1.70;;
2161;SDS011;1087;50.226;8.682;2023-02-03T10:06:15;5.10;;;1.80;;
2161;SDS011;1087;50.226;8.682;2023-02-03T10:16:54;4.10;;;1.63;;
2161;SDS011;1087;50.226;8.682;2023-02-03T10:22:37;3.27;;;1.30;;
2161;SDS011;1087;50.226;8.682;2023-02-03T10:27:38;2.97;;;1.40;;
2161;SDS011;1087;50.226;8.682;2023-02-03T10:30:22;2.50;;;1.20;;
2161;SDS011;1087;50.226;8.682;2023-02-03T10:32:53;1.50;;;1.40;;
2161;SDS011;1087;50.226;8.682;2023-02-03T10:35:26;4.27;;;2.57;;
2161;SDS011;1087;50.226;8.682;2023-02-03T10:38:00;1.90;;;1.67;;
2161;SDS011;1087;50.226;8.682;2023-02-03T10:40:28;2.70;;;1.70;;
2161;SDS011;1087;50.226;8.682;2023-02-03T10:42:54;2.40;;;1.73;;
2161;SDS011;1087;50.226;8.682;2023-02-03T10:45:39;1.73;;;1.63;;
2161;SDS011;1087;50.226;8.682;2023-02-03T10:48:05;3.27;;;1.70;;
2161;SDS011;1087;50.226;8.682;2023-02-03T10:50:34;4.40;;;1.73;;
2161;SDS011;1087;50.226;8.682;2023-02-03T10:53:38;4.10;;;1.30;;
2161;SDS011;1087;50.226;8.682;2023-02-03T10:56:02;1.53;;;1.43;;
2161;SDS011;1087;50.226;8.682;2023-02-03T10:58:31;2.03;;;1.80;;
2161;SDS011;1087;50.226;8.682;2023-02-03T11:01:05;2.50;;;1.70;;
2161;SDS011;1087;50.226;8.682;2023-02-03T11:03:44;1.60;;;1.43;;
2161;SDS011;1087;50.226;8.682;2023-02-03T11:06:20;2.70;;;2.17;;
2161;SDS011;1087;50.226;8.682;2023-02-03T11:08:47;3.73;;;1.30;;
2161;SDS011;1087;50.226;8.682;2023-02-03T11:11:18;1.10;;;1.00;;
2161;SDS011;1087;50.226;8.682;2023-02-03T11:14:10;2.40;;;1.60;;
2161;SDS011;1087;50.226;8.682;2023-02-03T11:16:39;2.30;;;1.37;;
2161;SDS011;1087;50.226;8.682;2023-02-03T11:24:05;1.50;;;1.27;;
2161;SDS011;1087;50.226;8.682;2023-02-03T11:26:48;4.33;;;2.60;;
2161;SDS011;1087;50.226;8.682;2023-02-03T11:29:29;2.70;;;1.40;;
2161;SDS011;1087;50.226;8.682;2023-02-03T11:31:59;4.40;;;1.50;;
2161;SDS011;1087;50.226;8.682;2023-02-03T11:34:28;1.50;;;1.10;;
2161;SDS011;1087;50.226;8.682;2023-02-03T11:36:56;2.03;;;1.60;;
2161;SDS011;1087;50.226;8.682;2023-02-03T11:41:52;2.43;;;2.20;;
2161;SDS011;1087;50.226;8.682;2023-02-03T11:44:22;1.80;;;1.40;;
2161;SDS011;1087;50.226;8.682;2023-02-03T11:46:56;1.60;;;1.30;;
2161;SDS011;1087;50.226;8.682;2023-02-03T11:49:38;3.43;;;1.40;;
2161;SDS011;1087;50.226;8.682;2023-02-03T11:52:30;1.87;;;1.57;;
2161;SDS011;1087;50.226;8.682;2023-02-03T11:55:06;1.70;;;1.03;;
2161;SDS011;1087;50.226;8.682;2023-02-03T11:58:06;2.07;;;1.50;;
2161;SDS011;1087;50.226;8.682;2023-02-03T12:00:37;3.70;;;1.57;;
2161;SDS011;1087;50.226;8.682;2023-02-03T12:03:17;2.60;;;1.33;;
2161;SDS011;1087;50.226;8.682;2023-02-03T12:06:11;1.93;;;1.43;;
2161;SDS011;1087;50.226;8.682;2023-02-03T12:09:10;1.57;;;1.47;;
2161;SDS011;1087;50.226;8.682;2023-02-03T12:17:00;3.13;;;1.43;;
2161;SDS011;1087;50.226;8.682;2023-02-03T12:24:55;2.40;;;1.20;;
2161;SDS011;1087;50.226;8.682;2023-02-03T12:27:40;1.67;;;1.57;;
2161;SDS011;1087;50.226;8.682;2023-02-03T12:30:19;1.93;;;1.20;;
2161;SDS011;1087;50.226;8.682;2023-02-03T12:32:50;3.70;;;1.40;;
2161;SDS011;1087;50.226;8.682;2023-02-03T12:35:32;2.93;;;1.20;;
2161;SDS011;1087;50.226;8.682;2023-02-03T12:40:35;2.27;;;1.33;;
2161;SDS011;1087;50.226;8.682;2023-02-03T12:45:40;2.60;;;1.30;;
2161;SDS011;1087;50.226;8.682;2023-02-03T12:48:11;1.93;;;1.60;;
2161;SDS011;1087;50.226;8.682;2023-02-03T12:50:41;2.70;;;2.00;;
2161;SDS011;1087;50.226;8.682;2023-02-03T12:53:11;1.60;;;1.47;;
2161;SDS011;1087;50.226;8.682;2023-02-03T12:56:19;2.07;;;1.97;;
2161;SDS011;1087;50.226;8.682;2023-02-03T12:58:39;3.10;;;1.73;;
2161;SDS011;1087;50.226;8.682;2023-02-03T13:06:17;1.70;;;1.60;;
2161;SDS011;1087;50.226;8.682;2023-02-03T13:09:08;1.53;;;1.43;;
2161;SDS011;1087;50.226;8.682;2023-02-03T13:11:57;1.83;;;1.53;;
2161;SDS011;1087;50.226;8.682;2023-02-03T13:17:24;2.20;;;1.30;;
2161;SDS011;1087;50.226;8.682;2023-02-03T13:22:45;2.60;;;1.20;;
2161;SDS011;1087;50.226;8.682;2023-02-03T13:25:24;3.07;;;1.57;;
2161;SDS011;1087;50.226;8.682;2023-02-03T13:30:49;3.30;;;1.60;;
2161;SDS011;1087;50.226;8.682;2023-02-03T13:36:26;3.43;;;1.90;;
2161;SDS011;1087;50.226;8.682;2023-02-03T13:41:50;3.60;;;1.90;;
2161;SDS011;1087;50.226;8.682;2023-02-03T13:44:20;2.43;;;1.80;;
2161;SDS011;1087;50.226;8.682;2023-02-03T13:46:53;4.60;;;2.27;;
2161;SDS011;1087;50.226;8.682;2023-02-03T13:49:29;6.83;;;5.73;;
2161;SDS011;1087;50.226;8.682;2023-02-03T13:51:57;2.70;;;2.50;;
2161;SDS011;1087;50.226;8.682;2023-02-03T13:54:31;2.50;;;2.30;;
2161;SDS011;1087;50.226;8.682;2023-02-03T13:57:00;2.63;;;1.90;;
2161;SDS011;1087;50.226;8.682;2023-02-03T14:12:36;1.30;;;1.20;;
2161;SDS011;1087;50.226;8.682;2023-02-03T14:22:58;2.57;;;2.03;;
2161;SDS011;1087;50.226;8.682;2023-02-03T14:25:40;2.70;;;2.13;;
2161;SDS011;1087;50.226;8.682;2023-02-03T14:28:10;3.10;;;2.50;;
2161;SDS011;1087;50.226;8.682;2023-02-03T14:33:48;2.37;;;1.90;;
2161;SDS011;1087;50.226;8.682;2023-02-03T14:36:25;2.60;;;1.37;;
2161;SDS011;1087;50.226;8.682;2023-02-03T14:38:51;1.93;;;1.80;;
2161;SDS011;1087;50.226;8.682;2023-02-03T14:41:20;2.93;;;2.73;;
2161;SDS011;1087;50.226;8.682;2023-02-03T14:44:50;1.70;;;1.60;;
2161;SDS011;1087;50.226;8.682;2023-02-03T14:47:42;2.50;;;2.17;;
2161;SDS011;1087;50.226;8.682;2023-02-03T14:53:22;3.60;;;2.40;;
2161;SDS011;1087;50.226;8.682;2023-02-03T14:56:24;2.63;;;2.23;;
2161;SDS011;1087;50.226;8.682;2023-02-03T14:59:27;3.23;;;2.60;;
2161;SDS011;1087;50.226;8.682;2023-02-03T15:04:26;3.50;;;3.20;;
2161;SDS011;1087;50.226;8.682;2023-02-03T15:06:52;2.90;;;2.60;;
2161;SDS011;1087;50.226;8.682;2023-02-03T15:09:26;4.03;;;3.20;;
2161;SDS011;1087;50.226;8.682;2023-02-03T15:11:55;3.17;;;2.97;;
2161;SDS011;1087;50.226;8.682;2023-02-03T15:16:52;3.33;;;2.73;;
2161;SDS011;1087;50.226;8.682;2023-02-03T15:19:31;3.30;;;3.00;;
2161;SDS011;1087;50.226;8.682;2023-02-03T15:21:59;3.13;;;2.80;;
2161;SDS011;1087;50.226;8.682;2023-02-03T15:24:24;3.40;;;3.10;;
2161;SDS011;1087;50.226;8.682;2023-02-03T15:26:57;3.97;;;3.57;;
2161;SDS011;1087;50.226;8.682;2023-02-03T15:29:27;3.57;;;3.27;;
2161;SDS011;1087;50.226;8.682;2023-02-03T15:32:02;4.63;;;4.20;;
2161;SDS011;1087;50.226;8.682;2023-02-03T15:34:38;4.47;;;3.77;;
2161;SDS011;1087;50.226;8.682;2023-02-03T15:40:03;6.13;;;5.53;;
2161;SDS011;1087;50.226;8.682;2023-02-03T15:47:49;9.77;;;4.93;;
2161;SDS011;1087;50.226;8.682;2023-02-03T15:50:24;5.20;;;4.70;;
2161;SDS011;1087;50.226;8.682;2023-02-03T15:53:03;5.90;;;5.03;;
2161;SDS011;1087;50.226;8.682;2023-02-03T15:55:38;5.20;;;3.63;;
2161;SDS011;1087;50.226;8.682;2023-02-03T15:58:19;9.30;;;6.30;;
2161;SDS011;1087;50.226;8.682;2023-02-03T16:00:52;6.97;;;4.37;;
2161;SDS011;1087;50.226;8.682;2023-02-03T16:03:21;14.33;;;10.30;;
2161;SDS011;1087;50.226;8.682;2023-02-03T16:06:07;4.00;;;3.57;;
2161;SDS011;1087;50.226;8.682;2023-02-03T16:08:44;4.57;;;3.63;;
2161;SDS011;1087;50.226;8.682;2023-02-03T16:11:24;4.30;;;3.90;;
2161;SDS011;1087;50.226;8.682;2023-02-03T16:13:50;4.37;;;3.57;;
